Time,TemperatureF,DewpointF,PressureIn,WindDirection,WindDirectionDegrees,WindSpeedMPH,WindSpeedGustMPH,Humidity,HourlyPrecipIn,Conditions,Clouds,dailyrainin,SolarRadiationWatts/m^2,SoftwareType,DateUTC
2013-07-16 00:02:00,72.9,66.4,30.11,West,271,1.0,1.0,80,0.00,,,0.00,0,Wunderground v.1.15,2013-07-16 04:02:00,
2013-07-16 00:12:00,72.8,66.6,30.11,West,271,0.0,1.0,81,0.00,,,0.00,0,Wunderground v.1.15,2013-07-16 04:12:00,
2013-07-16 00:17:00,72.3,66.1,30.10,West,271,0.0,0.0,81,0.00,,,0.00,0,Wunderground v.1.15,2013-07-16 04:17:00,
2013-07-16 00:22:00,72.0,66.2,30.11,West,271,0.0,0.0,82,0.00,,,0.00,0,Wunderground v.1.15,2013-07-16 04:22:00,
2013-07-16 00:27:00,71.7,66.3,30.11,West,271,0.0,0.0,83,0.00,,,0.00,0,Wunderground v.1.15,2013-07-16 04:27:00,
2013-07-16 00:32:00,71.5,66.1,30.11,West,271,0.0,0.0,83,0.00,,,0.00,0,Wunderground v.1.15,2013-07-16 04:32:00,
2013-07-16 00:37:00,71.3,65.9,30.11,West,271,0.0,0.0,83,0.00,,,0.00,0,Wunderground v.1.15,2013-07-16 04:37:00,
2013-07-16 00:42:00,71.2,66.1,30.11,West,271,0.0,0.0,84,0.00,,,0.00,0,Wunderground v.1.15,2013-07-16 04:42:00,
2013-07-16 00:47:00,71.0,65.9,30.11,West,271,0.0,0.0,84,0.00,,,0.00,0,Wunderground v.1.15,2013-07-16 04:47:00,
2013-07-16 00:52:00,70.8,66.1,30.11,West,271,0.0,0.0,85,0.00,,,0.00,0,Wunderground v.1.15,2013-07-16 04:52:00,
2013-07-16 00:57:00,70.6,65.9,30.10,West,271,0.0,0.0,85,0.00,,,0.00,0,Wunderground v.1.15,2013-07-16 04:57:00,
2013-07-16 01:02:00,70.2,65.8,30.11,West,271,0.0,0.0,86,0.00,,,0.00,0,Wunderground v.1.15,2013-07-16 05:02:00,
2013-07-16 01:07:00,69.9,65.9,30.11,West,271,0.0,0.0,87,0.00,,,0.00,0,Wunderground v.1.15,2013-07-16 05:07:00,
2013-07-16 01:12:00,69.6,65.6,30.11,West,271,0.0,0.0,87,0.00,,,0.00,0,Wunderground v.1.15,2013-07-16 05:12:00,
2013-07-16 01:17:00,69.4,65.7,30.10,West,271,0.0,0.0,88,0.00,,,0.00,0,Wunderground v.1.15,2013-07-16 05:17:00,
2013-07-16 01:22:00,69.2,65.5,30.10,West,271,0.0,0.0,88,0.00,,,0.00,0,Wunderground v.1.15,2013-07-16 05:22:00,
2013-07-16 01:27:00,68.9,65.5,30.11,West,271,0.0,0.0,89,0.00,,,0.00,0,Wunderground v.1.15,2013-07-16 05:27:00,
2013-07-16 01:32:00,68.7,65.3,30.10,West,271,0.0,0.0,89,0.00,,,0.00,0,Wunderground v.1.15,2013-07-16 05:32:00,
2013-07-16 01:37:00,68.5,65.4,30.10,West,271,0.0,0.0,90,0.00,,,0.00,0,Wunderground v.1.15,2013-07-16 05:37:00,
2013-07-16 01:42:00,68.3,65.6,30.10,West,271,0.0,0.0,91,0.00,,,0.00,0,Wunderground v.1.15,2013-07-16 05:42:00,
2013-07-16 01:47:00,68.1,65.4,30.10,West,271,0.0,0.0,91,0.00,,,0.00,0,Wunderground v.1.15,2013-07-16 05:47:00,
2013-07-16 01:52:00,67.9,65.5,30.10,West,271,0.0,0.0,92,0.00,,,0.00,0,Wunderground v.1.15,2013-07-16 05:52:00,
2013-07-16 01:57:00,67.8,65.4,30.10,West,271,0.0,0.0,92,0.00,,,0.00,0,Wunderground v.1.15,2013-07-16 05:57:00,
2013-07-16 02:02:00,67.6,65.2,30.10,West,271,0.0,0.0,92,0.00,,,0.00,0,Wunderground v.1.15,2013-07-16 06:02:00,
2013-07-16 02:07:00,67.5,65.1,30.10,West,271,0.0,0.0,92,0.00,,,0.00,0,Wunderground v.1.15,2013-07-16 06:07:00,
2013-07-16 02:12:00,67.4,65.3,30.10,West,271,0.0,0.0,93,0.00,,,0.00,0,Wunderground v.1.15,2013-07-16 06:12:00,
2013-07-16 02:17:00,67.2,65.1,30.10,West,271,0.0,0.0,93,0.00,,,0.00,0,Wunderground v.1.15,2013-07-16 06:17:00,
2013-07-16 02:22:00,67.1,65.0,30.10,West,271,0.0,0.0,93,0.00,,,0.00,0,Wunderground v.1.15,2013-07-16 06:22:00,
2013-07-16 02:27:00,67.0,64.9,30.10,West,271,0.0,0.0,93,0.00,,,0.00,0,Wunderground v.1.15,2013-07-16 06:27:00,
2013-07-16 02:32:00,66.8,64.7,30.10,West,271,0.0,0.0,93,0.00,,,0.00,0,Wunderground v.1.15,2013-07-16 06:32:00,
2013-07-16 02:37:00,66.7,64.9,30.10,West,271,0.0,0.0,94,0.00,,,0.00,0,Wunderground v.1.15,2013-07-16 06:37:00,
2013-07-16 02:42:00,66.6,64.8,30.10,West,271,0.0,0.0,94,0.00,,,0.00,0,Wunderground v.1.15,2013-07-16 06:42:00,
2013-07-16 02:52:00,66.4,64.6,30.10,West,271,0.0,0.0,94,0.00,,,0.00,0,Wunderground v.1.15,2013-07-16 06:52:00,
2013-07-16 02:57:00,66.4,64.6,30.10,West,271,0.0,0.0,94,0.00,,,0.00,0,Wunderground v.1.15,2013-07-16 06:57:00,
2013-07-16 03:02:00,66.3,64.5,30.10,West,271,0.0,0.0,94,0.00,,,0.00,0,Wunderground v.1.15,2013-07-16 07:02:00,
2013-07-16 03:07:00,66.2,64.4,30.10,West,271,0.0,0.0,94,0.00,,,0.00,0,Wunderground v.1.15,2013-07-16 07:07:00,
2013-07-16 03:12:00,66.2,64.4,30.10,West,271,0.0,0.0,94,0.00,,,0.00,0,Wunderground v.1.15,2013-07-16 07:12:00,
2013-07-16 03:17:00,66.1,64.3,30.10,West,271,0.0,0.0,94,0.00,,,0.00,0,Wunderground v.1.15,2013-07-16 07:17:00,
2013-07-16 03:22:00,66.0,64.2,30.10,West,271,0.0,0.0,94,0.00,,,0.00,0,Wunderground v.1.15,2013-07-16 07:22:00,
2013-07-16 03:27:00,65.9,64.4,30.10,West,271,0.0,0.0,95,0.00,,,0.00,0,Wunderground v.1.15,2013-07-16 07:27:00,
2013-07-16 03:32:00,65.9,64.4,30.09,West,271,0.0,0.0,95,0.00,,,0.00,0,Wunderground v.1.15,2013-07-16 07:32:00,
2013-07-16 03:37:00,65.9,64.4,30.10,West,271,0.0,0.0,95,0.00,,,0.00,0,Wunderground v.1.15,2013-07-16 07:37:00,
2013-07-16 03:42:00,65.8,64.3,30.10,West,271,0.0,0.0,95,0.00,,,0.00,0,Wunderground v.1.15,2013-07-16 07:42:00,
2013-07-16 03:47:00,65.7,64.2,30.10,West,271,0.0,0.0,95,0.00,,,0.00,0,Wunderground v.1.15,2013-07-16 07:47:00,
2013-07-16 03:52:00,65.7,64.2,30.10,West,271,0.0,0.0,95,0.00,,,0.00,0,Wunderground v.1.15,2013-07-16 07:52:00,
2013-07-16 03:57:00,65.6,64.1,30.10,West,271,0.0,0.0,95,0.00,,,0.00,0,Wunderground v.1.15,2013-07-16 07:57:00,
2013-07-16 04:02:00,65.6,64.1,30.10,West,271,0.0,1.0,95,0.00,,,0.00,0,Wunderground v.1.15,2013-07-16 08:02:00,
2013-07-16 04:07:00,65.5,64.0,30.10,West,271,0.0,0.0,95,0.00,,,0.00,0,Wunderground v.1.15,2013-07-16 08:07:00,
2013-07-16 04:12:00,65.4,63.9,30.10,West,271,0.0,0.0,95,0.00,,,0.00,0,Wunderground v.1.15,2013-07-16 08:12:00,
2013-07-16 04:22:00,65.3,63.8,30.10,West,271,0.0,0.0,95,0.00,,,0.00,0,Wunderground v.1.15,2013-07-16 08:22:00,
2013-07-16 04:27:00,65.2,63.7,30.09,West,271,0.0,0.0,95,0.00,,,0.00,0,Wunderground v.1.15,2013-07-16 08:27:00,
2013-07-16 04:32:00,65.2,63.7,30.09,West,271,0.0,0.0,95,0.00,,,0.00,0,Wunderground v.1.15,2013-07-16 08:32:00,
2013-07-16 04:37:00,65.2,64.0,30.09,West,271,0.0,0.0,96,0.00,,,0.00,0,Wunderground v.1.15,2013-07-16 08:37:00,
2013-07-16 04:47:00,65.1,63.9,30.10,West,271,0.0,0.0,96,0.00,,,0.00,0,Wunderground v.1.15,2013-07-16 08:47:00,
2013-07-16 04:52:00,65.1,63.9,30.10,West,271,0.0,0.0,96,0.00,,,0.00,0,Wunderground v.1.15,2013-07-16 08:52:00,
2013-07-16 04:57:00,65.0,63.8,30.10,WNW,291,0.0,0.0,96,0.00,,,0.00,0,Wunderground v.1.15,2013-07-16 08:57:00,
2013-07-16 05:02:00,65.0,63.8,30.10,NW,308,0.0,0.0,96,0.00,,,0.00,0,Wunderground v.1.15,2013-07-16 09:02:00,
2013-07-16 05:07:00,65.0,63.8,30.10,NW,307,0.0,0.0,96,0.00,,,0.00,0,Wunderground v.1.15,2013-07-16 09:07:00,
2013-07-16 05:12:00,65.0,63.8,30.10,NW,307,0.0,0.0,96,0.00,,,0.00,0,Wunderground v.1.15,2013-07-16 09:12:00,
2013-07-16 05:17:00,65.0,63.8,30.10,NW,307,0.0,0.0,96,0.00,,,0.00,0,Wunderground v.1.15,2013-07-16 09:17:00,
2013-07-16 05:22:00,65.0,63.8,30.10,NW,307,0.0,0.0,96,0.00,,,0.00,0,Wunderground v.1.15,2013-07-16 09:22:00,
2013-07-16 05:27:00,65.0,63.8,30.11,NW,307,0.0,0.0,96,0.00,,,0.00,5,Wunderground v.1.15,2013-07-16 09:27:00,
2013-07-16 05:32:00,65.0,63.8,30.11,NW,309,1.0,1.0,96,0.00,,,0.00,7,Wunderground v.1.15,2013-07-16 09:32:00,
2013-07-16 05:37:00,65.0,63.8,30.11,NW,309,1.0,1.0,96,0.00,,,0.00,11,Wunderground v.1.15,2013-07-16 09:37:00,
2013-07-16 05:42:00,65.0,63.8,30.11,NW,309,0.0,2.0,96,0.00,,,0.00,12,Wunderground v.1.15,2013-07-16 09:42:00,
2013-07-16 05:47:00,65.1,63.9,30.11,NW,309,0.0,1.0,96,0.00,,,0.00,14,Wunderground v.1.15,2013-07-16 09:47:00,
2013-07-16 05:52:00,65.2,64.0,30.11,NW,309,1.0,1.0,96,0.00,,,0.00,16,Wunderground v.1.15,2013-07-16 09:52:00,
2013-07-16 05:57:00,65.2,64.0,30.11,NW,309,1.0,1.0,96,0.00,,,0.00,19,Wunderground v.1.15,2013-07-16 09:57:00,
2013-07-16 06:02:00,65.4,64.2,30.11,WNW,291,0.0,1.0,96,0.00,,,0.00,26,Wunderground v.1.15,2013-07-16 10:02:00,
2013-07-16 06:12:00,65.7,64.5,30.11,NW,311,0.0,1.0,96,0.00,,,0.00,35,Wunderground v.1.15,2013-07-16 10:12:00,
2013-07-16 06:22:00,66.1,64.9,30.11,NW,311,0.0,0.0,96,0.00,,,0.00,47,Wunderground v.1.15,2013-07-16 10:22:00,
2013-07-16 06:27:00,66.4,65.2,30.11,NW,311,0.0,0.0,96,0.00,,,0.00,63,Wunderground v.1.15,2013-07-16 10:27:00,
2013-07-16 06:32:00,66.7,65.2,30.11,WNW,297,0.0,0.0,95,0.00,,,0.00,62,Wunderground v.1.15,2013-07-16 10:32:00,
2013-07-16 06:37:00,67.1,65.6,30.11,West,273,0.0,1.0,95,0.00,,,0.00,153,Wunderground v.1.15,2013-07-16 10:37:00,
2013-07-16 06:42:00,67.6,66.1,30.12,WSW,241,1.0,1.0,95,0.00,,,0.00,165,Wunderground v.1.15,2013-07-16 10:42:00,
2013-07-16 06:47:00,68.5,66.7,30.12,WSW,241,0.0,0.0,94,0.00,,,0.00,193,Wunderground v.1.15,2013-07-16 10:47:00,
2013-07-16 06:57:00,70.0,67.6,30.12,WSW,241,0.0,0.0,92,0.00,,,0.00,97,Wunderground v.1.15,2013-07-16 10:57:00,
2013-07-16 07:02:00,70.7,67.9,30.12,WSW,241,0.0,0.0,91,0.00,,,0.00,98,Wunderground v.1.15,2013-07-16 11:02:00,
2013-07-16 07:07:00,71.4,68.3,30.12,SSW,198,0.0,0.0,90,0.00,,,0.00,264,Wunderground v.1.15,2013-07-16 11:07:00,
2013-07-16 07:17:00,72.8,69.0,30.12,SSW,198,0.0,0.0,88,0.00,,,0.00,220,Wunderground v.1.15,2013-07-16 11:17:00,
2013-07-16 07:22:00,73.5,68.7,30.12,SSW,198,0.0,0.0,85,0.00,,,0.00,139,Wunderground v.1.15,2013-07-16 11:22:00,
2013-07-16 07:27:00,74.4,67.8,30.12,South,169,0.0,1.0,80,0.00,,,0.00,348,Wunderground v.1.15,2013-07-16 11:27:00,
2013-07-16 07:32:00,75.5,67.8,30.12,ESE,111,0.0,1.0,77,0.00,,,0.00,269,Wunderground v.1.15,2013-07-16 11:32:00,
2013-07-16 07:37:00,76.7,68.9,30.12,SSE,147,0.0,2.0,77,0.00,,,0.00,397,Wunderground v.1.15,2013-07-16 11:37:00,
2013-07-16 07:42:00,77.6,68.7,30.12,SSW,209,1.0,2.0,74,0.00,,,0.00,422,Wunderground v.1.15,2013-07-16 11:42:00,
2013-07-16 07:47:00,78.3,68.5,30.12,SSW,209,1.0,1.0,72,0.00,,,0.00,420,Wunderground v.1.15,2013-07-16 11:47:00,
2013-07-16 07:52:00,78.9,68.3,30.12,West,281,0.0,1.0,70,0.00,,,0.00,417,Wunderground v.1.15,2013-07-16 11:52:00,
2013-07-16 07:57:00,79.1,68.5,30.13,WSW,254,1.0,3.0,70,0.00,,,0.00,417,Wunderground v.1.15,2013-07-16 11:57:00,
2013-07-16 08:02:00,79.3,68.2,30.13,WNW,303,1.0,4.0,69,0.00,,,0.00,410,Wunderground v.1.15,2013-07-16 12:02:00,
2013-07-16 08:07:00,79.4,68.8,30.13,West,261,1.0,1.0,70,0.00,,,0.00,406,Wunderground v.1.15,2013-07-16 12:07:00,
2013-07-16 08:12:00,79.6,68.1,30.12,WNW,294,1.0,1.0,68,0.00,,,0.00,415,Wunderground v.1.15,2013-07-16 12:12:00,
2013-07-16 08:17:00,79.8,69.1,30.12,West,279,2.0,2.0,70,0.00,,,0.00,420,Wunderground v.1.15,2013-07-16 12:17:00,
2013-07-16 08:22:00,80.1,69.0,30.12,WNW,303,1.0,2.0,69,0.00,,,0.00,441,Wunderground v.1.15,2013-07-16 12:22:00,
2013-07-16 08:27:00,80.1,69.4,30.12,NW,325,2.0,5.0,70,0.00,,,0.00,459,Wunderground v.1.15,2013-07-16 12:27:00,
2013-07-16 08:32:00,80.2,68.7,30.12,WNW,294,3.0,5.0,68,0.00,,,0.00,473,Wunderground v.1.15,2013-07-16 12:32:00,
2013-07-16 08:37:00,80.5,69.0,30.12,WNW,296,2.0,2.0,68,0.00,,,0.00,482,Wunderground v.1.15,2013-07-16 12:37:00,
2013-07-16 08:42:00,80.9,69.3,30.12,WNW,288,2.0,2.0,68,0.00,,,0.00,499,Wunderground v.1.15,2013-07-16 12:42:00,
2013-07-16 08:47:00,81.2,69.2,30.12,NW,322,2.0,4.0,67,0.00,,,0.00,517,Wunderground v.1.15,2013-07-16 12:47:00,
2013-07-16 08:52:00,81.4,69.4,30.12,WNW,298,2.0,5.0,67,0.00,,,0.00,531,Wunderground v.1.15,2013-07-16 12:52:00,
2013-07-16 08:57:00,81.7,69.7,30.12,West,261,3.0,6.0,67,0.00,,,0.00,547,Wunderground v.1.15,2013-07-16 12:57:00,
2013-07-16 09:02:00,82.1,70.1,30.12,NNW,328,3.0,6.0,67,0.00,,,0.00,559,Wunderground v.1.15,2013-07-16 13:02:00,
2013-07-16 09:07:00,82.4,69.9,30.12,West,273,3.0,3.0,66,0.00,,,0.00,571,Wunderground v.1.15,2013-07-16 13:07:00,
2013-07-16 09:12:00,82.8,69.8,30.12,NNW,336,2.0,3.0,65,0.00,,,0.00,580,Wunderground v.1.15,2013-07-16 13:12:00,
2013-07-16 09:22:00,83.3,69.8,30.12,WNW,294,3.0,4.0,64,0.00,,,0.00,613,Wunderground v.1.15,2013-07-16 13:22:00,
2013-07-16 09:27:00,83.6,69.7,30.12,WNW,301,4.0,4.0,63,0.00,,,0.00,628,Wunderground v.1.15,2013-07-16 13:27:00,
2013-07-16 09:32:00,83.8,69.9,30.12,NW,305,3.0,4.0,63,0.00,,,0.00,636,Wunderground v.1.15,2013-07-16 13:32:00,
2013-07-16 09:37:00,83.9,70.4,30.12,WNW,286,3.0,3.0,64,0.00,,,0.00,650,Wunderground v.1.15,2013-07-16 13:37:00,
2013-07-16 09:42:00,84.1,70.1,30.12,West,281,3.0,4.0,63,0.00,,,0.00,661,Wunderground v.1.15,2013-07-16 13:42:00,
2013-07-16 09:47:00,84.4,70.0,30.12,WNW,294,3.0,3.0,62,0.00,,,0.00,673,Wunderground v.1.15,2013-07-16 13:47:00,
2013-07-16 09:52:00,84.7,70.7,30.12,West,263,3.0,3.0,63,0.00,,,0.00,686,Wunderground v.1.15,2013-07-16 13:52:00,
2013-07-16 09:57:00,85.2,70.7,30.12,West,259,3.0,6.0,62,0.00,,,0.00,693,Wunderground v.1.15,2013-07-16 13:57:00,
2013-07-16 10:02:00,85.3,69.8,30.12,North,5,3.0,6.0,60,0.00,,,0.00,708,Wunderground v.1.15,2013-07-16 14:02:00,
2013-07-16 10:07:00,85.3,70.3,30.12,NW,319,4.0,4.0,61,0.00,,,0.00,715,Wunderground v.1.15,2013-07-16 14:07:00,
2013-07-16 10:12:00,85.6,69.1,30.12,WNW,294,4.0,4.0,58,0.00,,,0.00,728,Wunderground v.1.15,2013-07-16 14:12:00,
2013-07-16 10:17:00,85.8,68.8,30.12,West,275,4.0,4.0,57,0.00,,,0.00,738,Wunderground v.1.15,2013-07-16 14:17:00,
2013-07-16 10:22:00,86.3,70.3,30.12,ESE,105,3.0,4.0,59,0.00,,,0.00,749,Wunderground v.1.15,2013-07-16 14:22:00,
2013-07-16 10:27:00,86.9,70.3,30.12,WNW,300,2.0,5.0,58,0.00,,,0.00,758,Wunderground v.1.15,2013-07-16 14:27:00,
2013-07-16 10:32:00,86.8,69.2,30.12,NNW,348,3.0,5.0,56,0.00,,,0.00,766,Wunderground v.1.15,2013-07-16 14:32:00,
2013-07-16 10:37:00,86.7,69.6,30.12,West,281,3.0,3.0,57,0.00,,,0.00,775,Wunderground v.1.15,2013-07-16 14:37:00,
2013-07-16 10:47:00,87.2,66.9,30.12,NW,322,3.0,3.0,51,0.00,,,0.00,796,Wunderground v.1.15,2013-07-16 14:47:00,
2013-07-16 10:52:00,87.6,67.8,30.12,NW,309,4.0,4.0,52,0.00,,,0.00,807,Wunderground v.1.15,2013-07-16 14:52:00,
2013-07-16 10:57:00,87.8,67.4,30.12,ENE,61,4.0,4.0,51,0.00,,,0.00,812,Wunderground v.1.15,2013-07-16 14:57:00,
2013-07-16 11:02:00,88.3,68.4,30.12,NW,315,3.0,4.0,52,0.00,,,0.00,828,Wunderground v.1.15,2013-07-16 15:02:00,
2013-07-16 11:07:00,88.3,66.7,30.12,NW,312,3.0,8.0,49,0.00,,,0.00,846,Wunderground v.1.15,2013-07-16 15:07:00,
2013-07-16 11:12:00,88.5,67.5,30.11,North,360,4.0,8.0,50,0.00,,,0.00,853,Wunderground v.1.15,2013-07-16 15:12:00,
2013-07-16 11:17:00,89.0,68.5,30.12,WNW,298,3.0,3.0,51,0.00,,,0.00,854,Wunderground v.1.15,2013-07-16 15:17:00,
2013-07-16 11:22:00,89.3,67.0,30.11,WNW,298,2.0,5.0,48,0.00,,,0.00,889,Wunderground v.1.15,2013-07-16 15:22:00,
2013-07-16 11:27:00,89.2,67.5,30.12,WNW,299,3.0,8.0,49,0.00,,,0.00,863,Wunderground v.1.15,2013-07-16 15:27:00,
2013-07-16 11:32:00,88.9,67.9,30.12,North,355,4.0,8.0,50,0.00,,,0.00,867,Wunderground v.1.15,2013-07-16 15:32:00,
2013-07-16 11:37:00,88.3,65.5,30.12,NNW,338,6.0,6.0,47,0.00,,,0.00,870,Wunderground v.1.15,2013-07-16 15:37:00,
2013-07-16 11:47:00,89.2,68.1,30.12,NW,318,3.0,3.0,50,0.00,,,0.00,875,Wunderground v.1.15,2013-07-16 15:47:00,
2013-07-16 11:52:00,89.5,67.8,30.12,NW,319,3.0,3.0,49,0.00,,,0.00,921,Wunderground v.1.15,2013-07-16 15:52:00,
2013-07-16 11:57:00,89.4,66.5,30.11,NNW,328,3.0,3.0,47,0.00,,,0.00,902,Wunderground v.1.15,2013-07-16 15:57:00,
2013-07-16 12:02:00,89.2,66.3,30.11,NE,55,4.0,4.0,47,0.00,,,0.00,896,Wunderground v.1.15,2013-07-16 16:02:00,
2013-07-16 12:07:00,89.3,67.6,30.12,NW,306,4.0,4.0,49,0.00,,,0.00,902,Wunderground v.1.15,2013-07-16 16:07:00,
2013-07-16 12:12:00,89.2,66.3,30.11,NW,321,4.0,5.0,47,0.00,,,0.00,902,Wunderground v.1.15,2013-07-16 16:12:00,
2013-07-16 12:17:00,89.2,66.9,30.11,NNE,13,3.0,3.0,48,0.00,,,0.00,923,Wunderground v.1.15,2013-07-16 16:17:00,
2013-07-16 12:22:00,89.7,67.4,30.11,WNW,301,2.0,4.0,48,0.00,,,0.00,921,Wunderground v.1.15,2013-07-16 16:22:00,
2013-07-16 12:27:00,89.8,68.1,30.11,North,5,2.0,4.0,49,0.00,,,0.00,905,Wunderground v.1.15,2013-07-16 16:27:00,
2013-07-16 12:32:00,90.3,67.3,30.11,NNW,347,2.0,4.0,47,0.00,,,0.00,933,Wunderground v.1.15,2013-07-16 16:32:00,
2013-07-16 12:37:00,91.0,67.3,30.11,NE,53,2.0,2.0,46,0.00,,,0.00,902,Wunderground v.1.15,2013-07-16 16:37:00,
2013-07-16 12:42:00,91.4,66.4,30.11,NW,325,2.0,8.0,44,0.00,,,0.00,914,Wunderground v.1.15,2013-07-16 16:42:00,
2013-07-16 12:47:00,90.8,66.5,30.11,North,5,3.0,3.0,45,0.00,,,0.00,923,Wunderground v.1.15,2013-07-16 16:47:00,
2013-07-16 12:52:00,91.1,65.5,30.11,ENE,63,3.0,3.0,43,0.00,,,0.00,926,Wunderground v.1.15,2013-07-16 16:52:00,
2013-07-16 12:57:00,90.8,66.5,30.11,NW,306,3.0,5.0,45,0.00,,,0.00,997,Wunderground v.1.15,2013-07-16 16:57:00,
2013-07-16 13:02:00,90.6,66.3,30.11,NNW,333,3.0,5.0,45,0.00,,,0.00,156,Wunderground v.1.15,2013-07-16 17:02:00,
2013-07-16 13:07:00,90.0,67.7,30.11,NW,304,2.0,3.0,48,0.00,,,0.00,921,Wunderground v.1.15,2013-07-16 17:07:00,
2013-07-16 13:12:00,89.7,68.0,30.11,NW,311,3.0,4.0,49,0.00,,,0.00,919,Wunderground v.1.15,2013-07-16 17:12:00,
2013-07-16 13:17:00,89.8,67.5,30.10,NW,317,4.0,4.0,48,0.00,,,0.00,907,Wunderground v.1.15,2013-07-16 17:17:00,
2013-07-16 13:22:00,90.4,67.4,30.10,NW,317,3.0,4.0,47,0.00,,,0.00,911,Wunderground v.1.15,2013-07-16 17:22:00,
2013-07-16 13:32:00,91.5,67.2,30.10,ESE,118,2.0,2.0,45,0.00,,,0.00,935,Wunderground v.1.15,2013-07-16 17:32:00,
2013-07-16 13:37:00,92.0,68.3,30.10,NW,306,2.0,5.0,46,0.00,,,0.00,912,Wunderground v.1.15,2013-07-16 17:37:00,
2013-07-16 13:42:00,90.9,66.6,30.09,North,355,4.0,5.0,45,0.00,,,0.00,974,Wunderground v.1.15,2013-07-16 17:42:00,
2013-07-16 13:52:00,91.3,68.9,30.09,WNW,287,3.0,4.0,48,0.00,,,0.00,919,Wunderground v.1.15,2013-07-16 17:52:00,
2013-07-16 13:57:00,91.2,67.5,30.09,NW,326,3.0,4.0,46,0.00,,,0.00,900,Wunderground v.1.15,2013-07-16 17:57:00,
2013-07-16 14:02:00,90.8,66.5,30.09,NNW,327,4.0,4.0,45,0.00,,,0.00,926,Wunderground v.1.15,2013-07-16 18:02:00,
2013-07-16 14:07:00,91.2,66.9,30.09,NW,311,4.0,4.0,45,0.00,,,0.00,932,Wunderground v.1.15,2013-07-16 18:07:00,
2013-07-16 14:12:00,91.5,68.4,30.09,NNW,328,4.0,4.0,47,0.00,,,0.00,900,Wunderground v.1.15,2013-07-16 18:12:00,
2013-07-16 14:17:00,91.7,68.0,30.09,West,260,3.0,3.0,46,0.00,,,0.00,911,Wunderground v.1.15,2013-07-16 18:17:00,
2013-07-16 14:22:00,92.2,67.1,30.09,NW,324,3.0,9.0,44,0.00,,,0.00,967,Wunderground v.1.15,2013-07-16 18:22:00,
2013-07-16 14:27:00,91.4,68.3,30.09,West,276,4.0,4.0,47,0.00,,,0.00,937,Wunderground v.1.15,2013-07-16 18:27:00,
2013-07-16 14:32:00,91.5,67.2,30.10,NW,313,3.0,4.0,45,0.00,,,0.00,227,Wunderground v.1.15,2013-07-16 18:32:00,
2013-07-16 14:37:00,90.6,67.0,30.09,West,278,3.0,6.0,46,0.00,,,0.00,287,Wunderground v.1.15,2013-07-16 18:37:00,
2013-07-16 14:42:00,90.1,67.2,30.09,WNW,286,3.0,6.0,47,0.00,,,0.00,860,Wunderground v.1.15,2013-07-16 18:42:00,
2013-07-16 14:47:00,90.6,66.3,30.09,WNW,294,2.0,3.0,45,0.00,,,0.00,838,Wunderground v.1.15,2013-07-16 18:47:00,
2013-07-16 14:52:00,91.5,66.5,30.09,WNW,286,2.0,3.0,44,0.00,,,0.00,868,Wunderground v.1.15,2013-07-16 18:52:00,
2013-07-16 14:57:00,91.2,66.2,30.09,NE,45,3.0,3.0,44,0.00,,,0.00,397,Wunderground v.1.15,2013-07-16 18:57:00,
2013-07-16 15:02:00,91.4,67.7,30.09,NW,310,2.0,3.0,46,0.00,,,0.00,362,Wunderground v.1.15,2013-07-16 19:02:00,
2013-07-16 15:07:00,91.2,68.2,30.09,West,265,2.0,4.0,47,0.00,,,0.00,244,Wunderground v.1.15,2013-07-16 19:07:00,
2013-07-16 15:12:00,89.8,66.9,30.10,NW,315,3.0,4.0,47,0.00,,,0.00,251,Wunderground v.1.15,2013-07-16 19:12:00,
2013-07-16 15:17:00,89.6,67.9,30.09,WNW,302,2.0,3.0,49,0.00,,,0.00,445,Wunderground v.1.15,2013-07-16 19:17:00,
2013-07-16 15:22:00,89.9,68.2,30.09,NW,318,2.0,3.0,49,0.00,,,0.00,840,Wunderground v.1.15,2013-07-16 19:22:00,
2013-07-16 15:27:00,90.3,69.7,30.09,NNW,338,2.0,6.0,51,0.00,,,0.00,316,Wunderground v.1.15,2013-07-16 19:27:00,
2013-07-16 15:32:00,89.3,69.9,30.09,WSW,240,3.0,6.0,53,0.00,,,0.00,302,Wunderground v.1.15,2013-07-16 19:32:00,
2013-07-16 15:37:00,88.6,69.8,30.09,WNW,294,4.0,4.0,54,0.00,,,0.00,364,Wunderground v.1.15,2013-07-16 19:37:00,
2013-07-16 15:42:00,88.5,69.2,30.09,WNW,300,3.0,4.0,53,0.00,,,0.00,584,Wunderground v.1.15,2013-07-16 19:42:00,
2013-07-16 15:47:00,88.2,68.4,30.09,NNW,340,4.0,4.0,52,0.00,,,0.00,352,Wunderground v.1.15,2013-07-16 19:47:00,
2013-07-16 15:52:00,88.4,69.1,30.09,NNW,338,3.0,4.0,53,0.00,,,0.00,323,Wunderground v.1.15,2013-07-16 19:52:00,
2013-07-16 15:57:00,89.1,70.3,30.09,West,273,1.0,1.0,54,0.00,,,0.00,626,Wunderground v.1.15,2013-07-16 19:57:00,
2013-07-16 16:02:00,90.0,69.4,30.09,NNW,348,1.0,2.0,51,0.00,,,0.00,626,Wunderground v.1.15,2013-07-16 20:02:00,
2013-07-16 16:07:00,90.4,70.4,30.09,NNW,346,2.0,4.0,52,0.00,,,0.00,487,Wunderground v.1.15,2013-07-16 20:07:00,
2013-07-16 16:12:00,90.0,68.9,30.09,WNW,301,2.0,5.0,50,0.00,,,0.00,230,Wunderground v.1.15,2013-07-16 20:12:00,
2013-07-16 16:17:00,89.9,68.8,30.09,NW,320,2.0,2.0,50,0.00,,,0.00,276,Wunderground v.1.15,2013-07-16 20:17:00,
2013-07-16 16:22:00,89.4,68.9,30.09,West,273,3.0,3.0,51,0.00,,,0.00,656,Wunderground v.1.15,2013-07-16 20:22:00,
2013-07-16 16:27:00,89.6,68.5,30.09,NNW,338,3.0,4.0,50,0.00,,,0.00,345,Wunderground v.1.15,2013-07-16 20:27:00,
2013-07-16 16:32:00,89.5,68.4,30.09,NNW,331,2.0,4.0,50,0.00,,,0.00,281,Wunderground v.1.15,2013-07-16 20:32:00,
2013-07-16 16:37:00,89.2,69.3,30.09,NE,42,2.0,2.0,52,0.00,,,0.00,271,Wunderground v.1.15,2013-07-16 20:37:00,
2013-07-16 16:42:00,89.3,68.8,30.09,WNW,290,2.0,2.0,51,0.00,,,0.00,297,Wunderground v.1.15,2013-07-16 20:42:00,
2013-07-16 16:47:00,89.6,70.2,30.09,West,265,1.0,1.0,53,0.00,,,0.00,596,Wunderground v.1.15,2013-07-16 20:47:00,
2013-07-16 16:52:00,89.9,70.5,30.09,West,274,1.0,3.0,53,0.00,,,0.00,336,Wunderground v.1.15,2013-07-16 20:52:00,
2013-07-16 16:57:00,89.1,69.2,30.09,NW,312,2.0,3.0,52,0.00,,,0.00,144,Wunderground v.1.15,2013-07-16 20:57:00,
2013-07-16 17:02:00,88.6,69.8,30.08,WNW,291,3.0,3.0,54,0.00,,,0.00,471,Wunderground v.1.15,2013-07-16 21:02:00,
2013-07-16 17:07:00,88.9,68.4,30.08,WNW,302,2.0,2.0,51,0.00,,,0.00,452,Wunderground v.1.15,2013-07-16 21:07:00,
2013-07-16 17:12:00,89.4,71.6,30.08,NNW,333,2.0,2.0,56,0.00,,,0.00,446,Wunderground v.1.15,2013-07-16 21:12:00,
2013-07-16 17:22:00,89.9,68.2,30.08,NW,322,2.0,2.0,49,0.00,,,0.00,418,Wunderground v.1.15,2013-07-16 21:22:00,
2013-07-16 17:27:00,90.2,70.8,30.08,WNW,298,2.0,4.0,53,0.00,,,0.00,397,Wunderground v.1.15,2013-07-16 21:27:00,
2013-07-16 17:32:00,90.1,69.5,30.08,NNW,333,2.0,4.0,51,0.00,,,0.00,376,Wunderground v.1.15,2013-07-16 21:32:00,
2013-07-16 17:37:00,89.8,69.3,30.08,NW,323,2.0,2.0,51,0.00,,,0.00,385,Wunderground v.1.15,2013-07-16 21:37:00,
2013-07-16 17:42:00,90.0,69.4,30.08,NNW,338,2.0,3.0,51,0.00,,,0.00,394,Wunderground v.1.15,2013-07-16 21:42:00,
2013-07-16 17:47:00,89.8,69.3,30.08,West,267,2.0,2.0,51,0.00,,,0.00,399,Wunderground v.1.15,2013-07-16 21:47:00,
2013-07-16 17:52:00,89.9,69.9,30.08,WNW,294,2.0,2.0,52,0.00,,,0.00,353,Wunderground v.1.15,2013-07-16 21:52:00,
2013-07-16 17:57:00,89.8,68.7,30.08,West,273,2.0,2.0,50,0.00,,,0.00,318,Wunderground v.1.15,2013-07-16 21:57:00,
2013-07-16 18:02:00,89.6,69.1,30.08,WNW,296,2.0,2.0,51,0.00,,,0.00,302,Wunderground v.1.15,2013-07-16 22:02:00,
2013-07-16 18:07:00,89.2,68.7,30.08,WNW,286,2.0,3.0,51,0.00,,,0.00,281,Wunderground v.1.15,2013-07-16 22:07:00,
2013-07-16 18:12:00,88.9,70.1,30.08,WNW,292,2.0,3.0,54,0.00,,,0.00,244,Wunderground v.1.15,2013-07-16 22:12:00,
2013-07-16 18:17:00,88.8,69.5,30.08,West,269,2.0,4.0,53,0.00,,,0.00,206,Wunderground v.1.15,2013-07-16 22:17:00,
2013-07-16 18:22:00,88.7,69.4,30.08,West,279,2.0,4.0,53,0.00,,,0.00,142,Wunderground v.1.15,2013-07-16 22:22:00,
2013-07-16 18:27:00,88.6,70.4,30.08,WNW,289,2.0,2.0,55,0.00,,,0.00,90,Wunderground v.1.15,2013-07-16 22:27:00,
2013-07-16 18:32:00,88.4,70.2,30.08,SW,219,1.0,2.0,55,0.00,,,0.00,60,Wunderground v.1.15,2013-07-16 22:32:00,
2013-07-16 18:37:00,88.1,68.8,30.08,NW,305,1.0,2.0,53,0.00,,,0.00,46,Wunderground v.1.15,2013-07-16 22:37:00,
2013-07-16 18:42:00,87.9,70.2,30.09,WNW,285,1.0,2.0,56,0.00,,,0.00,42,Wunderground v.1.15,2013-07-16 22:42:00,
2013-07-16 18:47:00,87.9,70.2,30.09,WNW,287,1.0,1.0,56,0.00,,,0.00,42,Wunderground v.1.15,2013-07-16 22:47:00,
2013-07-16 18:52:00,87.7,70.1,30.09,West,280,1.0,1.0,56,0.00,,,0.00,40,Wunderground v.1.15,2013-07-16 22:52:00,
2013-07-16 18:57:00,87.3,69.7,30.09,West,281,1.0,1.0,56,0.00,,,0.00,39,Wunderground v.1.15,2013-07-16 22:57:00,
2013-07-16 19:02:00,86.4,70.9,30.09,West,263,0.0,1.0,60,0.00,,,0.00,46,Wunderground v.1.15,2013-07-16 23:02:00,
2013-07-16 19:07:00,85.7,70.7,30.09,West,263,0.0,0.0,61,0.00,,,0.00,51,Wunderground v.1.15,2013-07-16 23:07:00,
2013-07-16 19:12:00,85.4,70.9,30.09,West,263,0.0,1.0,62,0.00,,,0.00,49,Wunderground v.1.15,2013-07-16 23:12:00,
2013-07-16 19:17:00,85.2,71.2,30.09,West,263,0.0,0.0,63,0.00,,,0.00,39,Wunderground v.1.15,2013-07-16 23:17:00,
2013-07-16 19:22:00,84.6,71.1,30.09,West,263,0.0,0.0,64,0.00,,,0.00,32,Wunderground v.1.15,2013-07-16 23:22:00,
2013-07-16 19:27:00,84.2,71.2,30.09,West,263,0.0,0.0,65,0.00,,,0.00,26,Wunderground v.1.15,2013-07-16 23:27:00,
2013-07-16 19:32:00,83.6,71.0,30.09,West,263,0.0,0.0,66,0.00,,,0.00,25,Wunderground v.1.15,2013-07-16 23:32:00,
2013-07-16 19:37:00,83.1,71.0,30.09,West,263,0.0,0.0,67,0.00,,,0.00,23,Wunderground v.1.15,2013-07-16 23:37:00,
2013-07-16 19:42:00,82.8,70.7,30.09,West,263,0.0,0.0,67,0.00,,,0.00,21,Wunderground v.1.15,2013-07-16 23:42:00,
2013-07-16 19:47:00,82.5,70.9,30.10,West,263,0.0,0.0,68,0.00,,,0.00,18,Wunderground v.1.15,2013-07-16 23:47:00,
2013-07-16 19:52:00,82.1,70.5,30.10,West,263,0.0,0.0,68,0.00,,,0.00,16,Wunderground v.1.15,2013-07-16 23:52:00,
2013-07-16 19:57:00,81.9,70.7,30.10,West,263,0.0,0.0,69,0.00,,,0.00,14,Wunderground v.1.15,2013-07-16 23:57:00,
2013-07-16 20:02:00,81.4,70.7,30.10,West,263,0.0,0.0,70,0.00,,,0.00,12,Wunderground v.1.15,2013-07-17 00:02:00,
2013-07-16 20:07:00,80.9,70.2,30.10,West,263,0.0,0.0,70,0.00,,,0.00,11,Wunderground v.1.15,2013-07-17 00:07:00,
2013-07-16 20:17:00,79.9,69.7,30.10,West,263,0.0,0.0,71,0.00,,,0.00,7,Wunderground v.1.15,2013-07-17 00:17:00,
2013-07-16 20:22:00,79.5,69.7,30.10,West,263,0.0,0.0,72,0.00,,,0.00,5,Wunderground v.1.15,2013-07-17 00:22:00,
2013-07-16 20:27:00,79.2,69.8,30.10,West,263,0.0,0.0,73,0.00,,,0.00,0,Wunderground v.1.15,2013-07-17 00:27:00,
2013-07-16 20:32:00,78.9,69.5,30.10,West,263,0.0,0.0,73,0.00,,,0.00,0,Wunderground v.1.15,2013-07-17 00:32:00,
2013-07-16 20:37:00,78.5,69.5,30.10,West,263,0.0,0.0,74,0.00,,,0.00,0,Wunderground v.1.15,2013-07-17 00:37:00,
2013-07-16 20:42:00,78.1,69.5,30.10,West,263,0.0,0.0,75,0.00,,,0.00,0,Wunderground v.1.15,2013-07-17 00:42:00,
2013-07-16 20:47:00,77.8,69.2,30.11,West,263,0.0,0.0,75,0.00,,,0.00,0,Wunderground v.1.15,2013-07-17 00:47:00,
2013-07-16 20:52:00,77.5,69.3,30.11,West,263,0.0,0.0,76,0.00,,,0.00,0,Wunderground v.1.15,2013-07-17 00:52:00,
2013-07-16 20:57:00,77.1,69.3,30.11,West,263,0.0,0.0,77,0.00,,,0.00,0,Wunderground v.1.15,2013-07-17 00:57:00,
2013-07-16 21:02:00,76.6,69.6,30.11,West,263,0.0,0.0,79,0.00,,,0.00,0,Wunderground v.1.15,2013-07-17 01:02:00,
2013-07-16 21:07:00,76.3,69.7,30.11,West,263,0.0,0.0,80,0.00,,,0.00,0,Wunderground v.1.15,2013-07-17 01:07:00,
2013-07-16 21:12:00,75.9,69.6,30.11,West,263,0.0,0.0,81,0.00,,,0.00,0,Wunderground v.1.15,2013-07-17 01:12:00,
2013-07-16 21:17:00,75.5,69.6,30.11,West,263,0.0,0.0,82,0.00,,,0.00,0,Wunderground v.1.15,2013-07-17 01:17:00,
2013-07-16 21:22:00,75.3,70.1,30.11,West,263,0.0,0.0,84,0.00,,,0.00,0,Wunderground v.1.15,2013-07-17 01:22:00,
2013-07-16 21:27:00,75.1,70.3,30.12,West,263,0.0,0.0,85,0.00,,,0.00,0,Wunderground v.1.15,2013-07-17 01:27:00,
2013-07-16 21:32:00,74.8,70.3,30.12,West,263,0.0,0.0,86,0.00,,,0.00,0,Wunderground v.1.15,2013-07-17 01:32:00,
2013-07-16 21:37:00,74.6,70.1,30.12,West,263,0.0,0.0,86,0.00,,,0.00,0,Wunderground v.1.15,2013-07-17 01:37:00,
2013-07-16 21:47:00,74.0,69.9,30.12,West,263,0.0,0.0,87,0.00,,,0.00,0,Wunderground v.1.15,2013-07-17 01:47:00,
2013-07-16 21:52:00,73.7,69.9,30.12,West,263,0.0,0.0,88,0.00,,,0.00,0,Wunderground v.1.15,2013-07-17 01:52:00,
2013-07-16 21:57:00,73.5,69.7,30.12,West,263,0.0,0.0,88,0.00,,,0.00,0,Wunderground v.1.15,2013-07-17 01:57:00,
2013-07-16 22:02:00,73.3,69.9,30.12,West,263,0.0,0.0,89,0.00,,,0.00,0,Wunderground v.1.15,2013-07-17 02:02:00,
2013-07-16 22:07:00,73.1,69.7,30.12,West,263,0.0,0.0,89,0.00,,,0.00,0,Wunderground v.1.15,2013-07-17 02:07:00,
2013-07-16 22:12:00,73.0,69.6,30.12,West,263,0.0,0.0,89,0.00,,,0.00,0,Wunderground v.1.15,2013-07-17 02:12:00,
2013-07-16 22:17:00,72.8,69.4,30.12,West,263,0.0,0.0,89,0.00,,,0.00,0,Wunderground v.1.15,2013-07-17 02:17:00,
2013-07-16 22:22:00,72.6,69.2,30.12,West,263,0.0,0.0,89,0.00,,,0.00,0,Wunderground v.1.15,2013-07-17 02:22:00,
2013-07-16 22:27:00,72.4,69.0,30.12,West,263,0.0,0.0,89,0.00,,,0.00,0,Wunderground v.1.15,2013-07-17 02:27:00,
2013-07-16 22:32:00,72.3,68.9,30.12,West,263,0.0,0.0,89,0.00,,,0.00,0,Wunderground v.1.15,2013-07-17 02:32:00,
2013-07-16 22:37:00,72.1,68.7,30.12,West,263,0.0,0.0,89,0.00,,,0.00,0,Wunderground v.1.15,2013-07-17 02:37:00,
2013-07-16 22:42:00,72.0,68.6,30.12,West,263,0.0,0.0,89,0.00,,,0.00,0,Wunderground v.1.15,2013-07-17 02:42:00,
2013-07-16 22:47:00,71.8,68.4,30.12,West,263,0.0,0.0,89,0.00,,,0.00,0,Wunderground v.1.15,2013-07-17 02:47:00,
2013-07-16 22:52:00,71.7,68.3,30.12,West,263,0.0,0.0,89,0.00,,,0.00,0,Wunderground v.1.15,2013-07-17 02:52:00,
2013-07-16 23:02:00,71.3,68.2,30.13,West,263,0.0,0.0,90,0.00,,,0.00,0,Wunderground v.1.15,2013-07-17 03:02:00,
2013-07-16 23:12:00,71.1,68.0,30.13,West,263,0.0,0.0,90,0.00,,,0.00,0,Wunderground v.1.15,2013-07-17 03:12:00,
2013-07-16 23:17:00,71.0,68.2,30.13,West,263,0.0,0.0,91,0.00,,,0.00,0,Wunderground v.1.15,2013-07-17 03:17:00,
2013-07-16 23:22:00,70.9,68.1,30.13,West,263,0.0,0.0,91,0.00,,,0.00,0,Wunderground v.1.15,2013-07-17 03:22:00,
2013-07-16 23:27:00,70.8,68.0,30.13,West,263,0.0,0.0,91,0.00,,,0.00,0,Wunderground v.1.15,2013-07-17 03:27:00,
2013-07-16 23:32:00,70.7,68.3,30.13,West,263,0.0,0.0,92,0.00,,,0.00,0,Wunderground v.1.15,2013-07-17 03:32:00,
2013-07-16 23:37:00,70.6,68.2,30.13,West,263,0.0,0.0,92,0.00,,,0.00,0,Wunderground v.1.15,2013-07-17 03:37:00,
2013-07-16 23:42:00,70.5,68.1,30.13,West,263,0.0,0.0,92,0.00,,,0.00,0,Wunderground v.1.15,2013-07-17 03:42:00,
2013-07-16 23:47:00,70.4,68.0,30.13,West,263,0.0,0.0,92,0.00,,,0.00,0,Wunderground v.1.15,2013-07-17 03:47:00,
2013-07-16 23:52:00,70.3,67.9,30.13,West,263,0.0,0.0,92,0.00,,,0.00,0,Wunderground v.1.15,2013-07-17 03:52:00,
2013-07-16 23:57:00,70.2,68.1,30.13,West,263,0.0,0.0,93,0.00,,,0.00,0,Wunderground v.1.15,2013-07-17 03:57:00,